Time;durP1;ratioP1;P1;durP2;ratioP2;P2;SDS_P1;SDS_P2;PMS_P1;PMS_P2;Temp;Humidity;BMP_temperature;BMP_pressure;BME280_temperature;BME280_humidity;BME280_pressure;Samples;Min_cycle;Max_cycle;Signal;HPM_P1;HPM_P2
2021/11/25 00:00:22;;;;;;;16.27;3.25;;;;;;;13.52;39.14;100758.47;4422500;32;20084;-69
2021/11/25 00:02:48;;;;;;;16.42;2.45;;;;;;;13.66;38.92;100765.66;4421449;32;20115;-69
2021/11/25 00:05:14;;;;;;;30.80;7.95;;;;;;;13.62;38.84;100770.62;4424277;32;20356;-69
2021/11/25 00:07:40;;;;;;;22.48;5.43;;;;;;;13.39;38.89;100760.56;4418766;32;20047;-69
2021/11/25 00:10:08;;;;;;;18.30;2.97;;;;;;;13.28;39.20;100767.81;4419331;32;20045;-69
2021/11/25 00:12:35;;;;;;;15.43;3.30;;;;;;;13.44;38.90;100773.31;4420329;32;20069;-69
2021/11/25 00:15:02;;;;;;;20.15;5.45;;;;;;;13.54;38.57;100772.94;4419109;32;20066;-69
2021/11/25 00:17:27;;;;;;;13.50;1.98;;;;;;;13.42;38.97;100765.28;4419911;32;20490;-69
2021/11/25 00:19:53;;;;;;;12.95;2.80;;;;;;;12.86;39.80;100761.53;4418925;32;20152;-69
2021/11/25 00:22:18;;;;;;;12.75;2.60;;;;;;;13.30;39.13;100766.13;4416911;32;20065;-69
2021/11/25 00:24:44;;;;;;;13.52;2.33;;;;;;;13.24;39.18;100770.78;4422689;32;20061;-69
2021/11/25 00:27:10;;;;;;;16.83;4.50;;;;;;;13.36;38.99;100775.59;4421479;32;20149;-69
2021/11/25 00:29:35;;;;;;;9.80;2.72;;;;;;;13.27;38.94;100772.69;4419631;32;20069;-69
2021/11/25 00:32:01;;;;;;;14.23;2.90;;;;;;;13.10;39.39;100770.47;4420411;32;20061;-69
2021/11/25 00:34:27;;;;;;;13.25;2.35;;;;;;;13.30;39.13;100763.28;4422088;32;20081;-69
2021/11/25 00:36:52;;;;;;;17.37;2.97;;;;;;;12.94;39.52;100776.22;4419626;32;20039;-69
2021/11/25 00:39:18;;;;;;;12.48;2.60;;;;;;;13.18;39.25;100761.28;4419428;32;20084;-69
2021/11/25 00:41:47;;;;;;;10.55;1.98;;;;;;;13.04;39.40;100773.06;4422093;32;20033;-69
2021/11/25 00:44:15;;;;;;;10.68;2.42;;;;;;;13.07;39.48;100765.72;4423727;32;20029;-69
2021/11/25 00:46:41;;;;;;;8.45;1.50;;;;;;;13.37;39.01;100771.53;4420930;32;20133;-69
2021/11/25 00:49:06;;;;;;;10.30;1.50;;;;;;;13.14;39.31;100769.09;4419689;32;20115;-69
2021/11/25 00:51:32;;;;;;;5.93;1.35;;;;;;;12.87;39.53;100763.13;4422806;32;20113;-69
2021/11/25 00:53:57;;;;;;;11.98;1.52;;;;;;;13.05;39.40;100762.56;4424102;32;20383;-69
2021/11/25 00:56:24;;;;;;;8.98;1.80;;;;;;;13.12;39.17;100765.13;4420451;32;20070;-69
2021/11/25 00:58:49;;;;;;;16.50;2.00;;;;;;;13.21;39.05;100773.72;4421605;32;20159;-69
2021/11/25 01:01:15;;;;;;;9.32;1.50;;;;;;;13.16;39.32;100775.06;4422347;32;20068;-69
2021/11/25 01:03:40;;;;;;;10.60;2.00;;;;;;;13.21;38.98;100770.88;4420150;32;20079;-69
2021/11/25 01:06:06;;;;;;;13.55;1.85;;;;;;;13.06;39.29;100766.94;4420299;32;20029;-69
2021/11/25 01:08:32;;;;;;;11.18;1.48;;;;;;;13.12;39.06;100774.41;4420057;32;20481;-69
2021/11/25 01:10:58;;;;;;;10.65;1.30;;;;;;;13.28;38.94;100770.62;4421990;32;20149;-69
2021/11/25 01:13:25;;;;;;;11.65;1.60;;;;;;;13.05;39.27;100766.19;4418660;32;20038;-69
2021/11/25 01:15:51;;;;;;;11.10;1.90;;;;;;;13.11;39.17;100761.53;4422400;32;20093;-69
2021/11/25 01:18:18;;;;;;;6.12;1.35;;;;;;;13.13;38.99;100758.25;4420423;32;20069;-69
2021/11/25 01:20:46;;;;;;;10.93;1.40;;;;;;;13.23;39.18;100769.16;4418410;32;20294;-69
2021/11/25 01:23:16;;;;;;;9.02;1.42;;;;;;;13.25;39.07;100768.72;4418190;32;20059;-69
2021/11/25 01:25:43;;;;;;;6.65;1.00;;;;;;;13.39;38.87;100759.75;4419357;32;20144;-69
2021/11/25 01:28:12;;;;;;;12.48;1.45;;;;;;;13.35;38.93;100779.66;4417849;32;20510;-69
2021/11/25 01:30:41;;;;;;;10.38;1.20;;;;;;;13.21;39.39;100773.72;4421726;32;20142;-69
2021/11/25 01:33:07;;;;;;;11.10;1.42;;;;;;;13.48;38.95;100782.47;4419720;32;20048;-69
2021/11/25 01:35:33;;;;;;;10.35;1.40;;;;;;;13.29;39.26;100773.00;4415727;32;20034;-69
2021/11/25 01:37:59;;;;;;;11.15;1.25;;;;;;;13.24;39.02;100769.97;4419906;32;20092;-69
2021/11/25 01:40:25;;;;;;;12.07;1.35;;;;;;;13.20;38.97;100772.13;4419941;32;20038;-69
2021/11/25 01:42:51;;;;;;;9.02;0.93;;;;;;;12.78;39.78;100777.13;4417457;32;20423;-69
2021/11/25 01:45:17;;;;;;;14.68;1.77;;;;;;;13.23;38.89;100779.72;4420947;32;20073;-69
2021/11/25 01:47:45;;;;;;;13.40;1.80;;;;;;;13.03;39.39;100784.81;4417719;32;20038;-69
2021/11/25 01:50:13;;;;;;;7.85;1.33;;;;;;;13.44;38.77;100788.22;4419154;32;20144;-69
2021/11/25 01:52:40;;;;;;;15.70;1.67;;;;;;;13.29;38.93;100777.88;4420539;32;20056;-69
2021/11/25 01:55:06;;;;;;;8.88;1.17;;;;;;;13.15;39.07;100779.16;4421013;32;20029;-69
2021/11/25 01:57:32;;;;;;;12.18;1.65;;;;;;;13.03;39.27;100776.34;4420981;32;20060;-69
2021/11/25 01:59:58;;;;;;;8.52;1.62;;;;;;;13.04;39.24;100789.25;4419633;32;20152;-69
2021/11/25 02:02:24;;;;;;;12.27;1.48;;;;;;;12.96;39.34;100791.47;4417356;32;20117;-69
2021/11/25 02:04:50;;;;;;;13.10;1.45;;;;;;;12.81;39.70;100795.19;4418527;32;20388;-69
2021/11/25 02:07:17;;;;;;;8.18;1.37;;;;;;;13.05;39.24;100800.09;4415448;32;20145;-69
2021/11/25 02:09:44;;;;;;;7.12;1.30;;;;;;;13.20;39.01;100794.75;4417894;32;20120;-69
2021/11/25 02:12:09;;;;;;;6.25;1.30;;;;;;;13.15;39.08;100795.31;4419924;32;20137;-69
2021/11/25 02:14:38;;;;;;;12.60;1.20;;;;;;;12.99;39.13;100787.78;4419247;32;20202;-69
2021/11/25 02:17:03;;;;;;;11.65;1.35;;;;;;;13.16;39.00;100783.56;4416682;32;20069;-69
2021/11/25 02:19:29;;;;;;;7.93;1.25;;;;;;;13.11;39.00;100777.69;4418525;32;20105;-69
2021/11/25 02:21:55;;;;;;;8.55;1.40;;;;;;;12.99;39.20;100776.47;4421220;32;20060;-69
2021/11/25 02:24:20;;;;;;;7.53;1.20;;;;;;;12.95;39.21;100772.94;4419794;32;20034;-69
2021/11/25 02:26:46;;;;;;;10.50;1.60;;;;;;;12.98;39.16;100765.59;4419972;32;20022;-69
2021/11/25 02:29:13;;;;;;;8.48;1.08;;;;;;;12.90;39.28;100764.25;4419807;32;20120;-69
2021/11/25 02:31:40;;;;;;;10.10;1.50;;;;;;;12.93;39.21;100763.34;4420357;32;20096;-69
2021/11/25 02:34:05;;;;;;;9.65;1.30;;;;;;;12.91;39.27;100765.81;4418365;32;20402;-69
2021/11/25 02:36:32;;;;;;;8.55;1.25;;;;;;;12.90;39.02;100753.75;4421569;32;20394;-69
2021/11/25 02:38:58;;;;;;;5.20;1.52;;;;;;;12.78;39.31;100765.03;4418319;32;20022;-69
2021/11/25 02:41:25;;;;;;;8.73;1.20;;;;;;;12.84;39.11;100775.31;4421035;32;20129;-69
2021/11/25 02:43:53;;;;;;;4.60;1.40;;;;;;;12.92;39.02;100776.66;4418761;32;20033;-69
2021/11/25 02:46:19;;;;;;;9.45;1.33;;;;;;;12.84;39.11;100769.69;4419293;32;20455;-69
2021/11/25 02:48:49;;;;;;;4.03;1.55;;;;;;;12.83;39.20;100767.31;4418662;32;20098;-69
2021/11/25 02:51:18;;;;;;;10.27;1.62;;;;;;;13.01;38.84;100762.66;4422289;32;20573;-69
2021/11/25 02:53:44;;;;;;;6.12;1.48;;;;;;;12.95;39.13;100775.75;4422055;32;20064;-69
2021/11/25 02:56:13;;;;;;;5.82;1.62;;;;;;;12.68;39.17;100771.84;4419651;32;20030;-69
2021/11/25 02:58:42;;;;;;;5.57;1.17;;;;;;;12.88;39.13;100776.00;4424357;32;20037;-69
2021/11/25 03:01:12;;;;;;;10.18;0.88;;;;;;;12.78;39.22;100777.13;4422021;32;20085;-68
2021/11/25 03:03:39;;;;;;;9.35;1.30;;;;;;;12.70;39.26;100778.59;4423375;32;20434;-68
2021/11/25 03:06:04;;;;;;;7.80;1.10;;;;;;;12.60;39.20;100788.19;4420402;32;20082;-68
2021/11/25 03:08:30;;;;;;;4.37;0.82;;;;;;;12.45;39.28;100783.47;4424208;32;20059;-68
2021/11/25 03:11:05;;;;;;;3.35;1.00;;;;;;;12.52;39.17;100786.84;4427051;32;20081;-68
2021/11/25 03:13:36;;;;;;;7.15;1.58;;;;;;;12.79;38.91;100789.22;4420424;32;20073;-68
2021/11/25 03:16:04;;;;;;;9.15;1.25;;;;;;;12.86;38.76;100772.81;4421702;32;21215;-69
2021/11/25 03:18:31;;;;;;;4.90;0.90;;;;;;;12.76;38.87;100776.03;4419738;32;20489;-68
2021/11/25 03:20:57;;;;;;;7.50;1.00;;;;;;;12.62;39.04;100780.09;4422937;32;20060;-68
2021/11/25 03:23:26;;;;;;;13.73;1.58;;;;;;;12.70;38.97;100781.41;4422119;32;20427;-69
2021/11/25 03:25:54;;;;;;;8.52;1.50;;;;;;;12.75;38.91;100780.88;4422051;32;20100;-68
2021/11/25 03:28:20;;;;;;;5.93;0.90;;;;;;;12.64;39.08;100777.59;4422042;32;20033;-68
2021/11/25 03:30:53;;;;;;;8.00;0.85;;;;;;;12.43;39.31;100781.09;4420494;32;20041;-69
2021/11/25 03:33:20;;;;;;;7.97;0.90;;;;;;;12.50;39.20;100775.22;4421307;32;20119;-69
2021/11/25 03:35:45;;;;;;;6.00;1.20;;;;;;;12.48;39.22;100774.88;4422276;32;20046;-68
2021/11/25 03:38:12;;;;;;;5.95;1.10;;;;;;;12.34;39.15;100780.97;4421068;32;20049;-68
2021/11/25 03:40:38;;;;;;;5.82;0.95;;;;;;;12.49;39.15;100789.78;4420541;32;20403;-68
2021/11/25 03:43:03;;;;;;;6.53;1.20;;;;;;;12.43;39.24;100794.41;4420918;32;20060;-69
2021/11/25 03:45:29;;;;;;;4.75;1.00;;;;;;;12.52;39.06;100792.47;4421339;32;20371;-69
2021/11/25 03:47:55;;;;;;;2.45;0.85;;;;;;;12.35;39.45;100793.84;4420877;32;20221;-69
2021/11/25 03:50:21;;;;;;;5.05;0.70;;;;;;;12.42;39.17;100799.25;4421129;32;20460;-69
2021/11/25 03:52:47;;;;;;;5.80;0.80;;;;;;;12.41;39.05;100800.50;4419891;32;20073;-69
2021/11/25 03:55:14;;;;;;;6.78;1.00;;;;;;;12.41;39.12;100800.50;4418870;32;20026;-69
2021/11/25 03:57:41;;;;;;;4.00;0.70;;;;;;;12.33;39.34;100796.31;4420037;32;20077;-69
2021/11/25 04:00:11;;;;;;;12.63;1.17;;;;;;;12.45;39.18;100803.22;4423077;32;20081;-69
2021/11/25 04:02:37;;;;;;;2.83;0.85;;;;;;;12.53;38.77;100804.56;4417315;32;20062;-69
2021/11/25 04:05:03;;;;;;;6.12;0.88;;;;;;;12.43;38.97;100798.03;4421578;32;20166;-69
2021/11/25 04:07:29;;;;;;;7.40;0.95;;;;;;;12.55;38.81;100799.28;4417771;32;20093;-69
2021/11/25 04:09:55;;;;;;;7.15;0.88;;;;;;;12.57;38.80;100794.75;4421819;32;20102;-69
2021/11/25 04:12:21;;;;;;;12.45;0.93;;;;;;;12.40;38.95;100798.12;4421539;32;20105;-69
2021/11/25 04:14:46;;;;;;;6.80;1.12;;;;;;;12.47;38.86;100803.53;4418539;32;20065;-69
2021/11/25 04:17:13;;;;;;;6.87;1.10;;;;;;;12.50;38.72;100808.28;4420854;32;20055;-69
2021/11/25 04:19:42;;;;;;;7.60;0.77;;;;;;;12.51;38.68;100813.50;4421659;32;20081;-69
2021/11/25 04:22:07;;;;;;;5.45;0.70;;;;;;;12.47;38.80;100800.72;4421378;32;20504;-69
2021/11/25 04:24:33;;;;;;;4.72;0.62;;;;;;;12.38;38.90;100801.41;4422740;32;20034;-69
2021/11/25 04:26:59;;;;;;;3.40;0.98;;;;;;;12.10;39.44;100797.38;4421149;32;20465;-69
2021/11/25 04:29:25;;;;;;;5.20;0.95;;;;;;;12.47;38.73;100804.34;4420353;32;20030;-69
2021/11/25 04:37:22;;;;;;;7.50;1.23;;;;;;;12.34;38.89;100780.97;4420219;32;20041;-69
2021/11/25 04:39:48;;;;;;;4.62;0.75;;;;;;;12.25;39.04;100772.37;4423343;32;20451;-69
2021/11/25 04:42:14;;;;;;;7.72;0.60;;;;;;;12.34;38.92;100771.69;4423575;32;20099;-69
2021/11/25 04:44:39;;;;;;;8.85;0.70;;;;;;;12.30;39.02;100768.97;4423254;32;20510;-68
2021/11/25 04:47:05;;;;;;;5.57;0.62;;;;;;;12.39;38.80;100768.34;4421646;32;20119;-68
2021/11/25 04:49:31;;;;;;;3.72;0.80;;;;;;;12.41;38.74;100774.31;4421722;32;20803;-68
2021/11/25 04:51:57;;;;;;;7.00;1.00;;;;;;;12.42;38.65;100770.25;4420686;32;20062;-68
2021/11/25 04:54:22;;;;;;;6.30;0.82;;;;;;;12.41;38.68;100772.28;4420345;32;20073;-68
2021/11/25 04:56:48;;;;;;;8.48;0.80;;;;;;;12.29;38.78;100781.50;4419281;32;20126;-68
2021/11/25 04:59:14;;;;;;;5.10;0.77;;;;;;;12.37;38.74;100785.72;4417591;32;20090;-68
2021/11/25 05:01:39;;;;;;;5.62;0.85;;;;;;;12.35;38.73;100798.69;4418451;32;20052;-69
2021/11/25 05:04:05;;;;;;;6.37;0.90;;;;;;;12.25;38.77;100803.41;4420422;32;20042;-68
2021/11/25 05:06:31;;;;;;;4.78;0.93;;;;;;;12.40;38.61;100795.31;4419939;32;20092;-69
2021/11/25 05:08:56;;;;;;;4.12;0.70;;;;;;;12.34;38.73;100805.56;4420033;32;20643;-68
2021/11/25 05:11:22;;;;;;;7.97;0.80;;;;;;;12.23;38.74;100808.69;4422034;32;20082;-68
2021/11/25 05:13:48;;;;;;;5.68;1.12;;;;;;;11.75;39.68;100812.50;4419859;32;20116;-69
2021/11/25 05:16:14;;;;;;;7.80;1.20;;;;;;;12.24;38.84;100810.28;4420919;32;20478;-69
2021/11/25 05:18:39;;;;;;;9.70;1.00;;;;;;;12.24;38.71;100815.91;4419536;32;20172;-68
2021/11/25 05:21:06;;;;;;;4.03;1.00;;;;;;;12.35;38.57;100810.75;4419482;32;20030;-68
2021/11/25 05:23:32;;;;;;;2.95;0.70;;;;;;;12.33;38.73;100818.09;4420382;32;20096;-68
2021/11/25 05:25:58;;;;;;;7.30;0.80;;;;;;;12.08;39.04;100813.19;4422057;32;20030;-68
2021/11/25 05:28:23;;;;;;;2.78;1.33;;;;;;;12.17;38.77;100821.78;4417405;32;20042;-68
2021/11/25 05:30:49;;;;;;;7.72;1.12;;;;;;;11.90;39.42;100833.44;4420318;32;20066;-68
2021/11/25 05:33:16;;;;;;;7.22;0.98;;;;;;;11.88;39.41;100824.63;4419727;32;20049;-68
2021/11/25 05:35:42;;;;;;;3.85;0.73;;;;;;;12.24;38.71;100834.91;4420233;32;20059;-68
2021/11/25 05:38:08;;;;;;;3.30;0.70;;;;;;;12.37;38.47;100836.50;4418487;32;20072;-68
2021/11/25 05:40:34;;;;;;;3.35;0.80;;;;;;;12.16;38.91;100836.34;4419664;32;20100;-68
2021/11/25 05:43:00;;;;;;;4.87;0.90;;;;;;;12.19;38.81;100836.25;4417891;32;20074;-68
2021/11/25 05:45:26;;;;;;;7.03;0.90;;;;;;;12.18;38.90;100833.87;4416117;32;20041;-68
2021/11/25 05:47:52;;;;;;;6.82;0.85;;;;;;;12.23;38.96;100842.56;4415945;32;20551;-68
2021/11/25 05:50:21;;;;;;;6.37;1.08;;;;;;;12.32;38.69;100834.22;4420455;32;20370;-68
2021/11/25 05:52:50;;;;;;;4.57;0.80;;;;;;;12.51;38.48;100844.53;4423293;32;20089;-68
2021/11/25 05:55:16;;;;;;;6.82;0.90;;;;;;;12.41;38.79;100842.84;4416312;32;20037;-69
2021/11/25 05:57:42;;;;;;;7.75;0.90;;;;;;;12.24;38.81;100840.53;4415338;32;20056;-69
2021/11/25 06:00:11;;;;;;;6.50;0.88;;;;;;;12.19;38.97;100841.09;4416748;32;20371;-69
2021/11/25 06:02:40;;;;;;;9.85;0.98;;;;;;;12.49;38.36;100844.19;4419475;32;20060;-69
2021/11/25 06:05:06;;;;;;;4.55;0.80;;;;;;;12.03;39.36;100847.59;4420530;32;20052;-69
2021/11/25 06:07:32;;;;;;;10.65;1.08;;;;;;;12.01;39.36;100850.84;4422387;32;20029;-69
2021/11/25 06:09:58;;;;;;;7.10;1.08;;;;;;;11.95;39.42;100863.13;4413177;32;20133;-69
2021/11/25 06:12:24;;;;;;;8.98;1.02;;;;;;;12.13;39.01;100852.12;4418724;32;20073;-69
2021/11/25 06:14:49;;;;;;;5.68;0.85;;;;;;;12.18;38.89;100860.03;4421374;32;20033;-69
2021/11/25 06:17:15;;;;;;;7.90;1.17;;;;;;;12.21;38.69;100864.78;4414978;32;20042;-69
2021/11/25 06:19:41;;;;;;;3.62;0.80;;;;;;;12.20;38.71;100860.37;4418953;32;20068;-69
2021/11/25 06:22:07;;;;;;;7.60;0.68;;;;;;;12.09;38.99;100860.69;4423566;32;20030;-69
2021/11/25 06:24:32;;;;;;;6.12;0.90;;;;;;;12.32;38.61;100862.44;4419256;32;20053;-69
2021/11/25 06:26:58;;;;;;;7.32;0.88;;;;;;;12.03;38.97;100856.81;4420750;32;20038;-69
2021/11/25 06:29:24;;;;;;;6.65;0.80;;;;;;;12.28;38.69;100867.41;4416542;32;20722;-69
2021/11/25 06:31:49;;;;;;;6.30;0.88;;;;;;;12.25;38.80;100867.50;4421350;32;20097;-69
2021/11/25 06:34:15;;;;;;;5.55;0.90;;;;;;;12.33;38.63;100872.50;4425644;32;20140;-69
2021/11/25 06:36:41;;;;;;;10.13;0.98;;;;;;;12.10;39.00;100864.31;4420853;32;20388;-69
2021/11/25 06:39:08;;;;;;;6.20;0.80;;;;;;;12.06;38.80;100872.09;4423500;32;20141;-69
2021/11/25 06:41:34;;;;;;;5.93;0.73;;;;;;;12.14;38.91;100876.28;4419404;32;20042;-69
2021/11/25 06:44:00;;;;;;;8.88;0.75;;;;;;;12.18;38.78;100876.19;4422252;32;20313;-69
2021/11/25 06:46:25;;;;;;;6.65;1.40;;;;;;;12.26;38.76;100883.19;4420318;32;20030;-69
2021/11/25 06:48:51;;;;;;;4.47;0.85;;;;;;;12.00;39.06;100887.97;4422263;32;20179;-69
2021/11/25 06:51:17;;;;;;;5.62;1.30;;;;;;;12.21;38.77;100880.94;4423755;32;20421;-69
2021/11/25 06:53:45;;;;;;;6.93;1.20;;;;;;;11.96;39.05;100878.78;4423086;32;20064;-69
2021/11/25 06:56:11;;;;;;;5.40;0.90;;;;;;;12.31;38.52;100877.81;4420088;32;20034;-69
2021/11/25 06:58:37;;;;;;;6.40;1.17;;;;;;;12.25;38.63;100881.63;4422248;32;20033;-69
2021/11/25 07:01:06;;;;;;;5.35;1.15;;;;;;;12.18;38.85;100884.66;4426812;32;20119;-69
2021/11/25 07:03:33;;;;;;;9.23;0.98;;;;;;;12.19;38.95;100895.50;4422100;32;20083;-69
2021/11/25 07:06:01;;;;;;;8.90;1.45;;;;;;;12.06;39.03;100901.06;4422085;32;20121;-69
2021/11/25 07:08:27;;;;;;;9.38;1.25;;;;;;;11.97;39.22;100905.78;4420733;32;20122;-69
2021/11/25 07:10:52;;;;;;;9.82;1.00;;;;;;;11.87;39.43;100904.00;4424589;32;20034;-69
2021/11/25 07:13:18;;;;;;;5.00;0.90;;;;;;;11.74;39.68;100917.25;4422582;32;20386;-69
2021/11/25 07:15:45;;;;;;;5.62;0.90;;;;;;;11.93;39.35;100913.53;4421380;32;20097;-69
2021/11/25 07:18:11;;;;;;;6.35;0.73;;;;;;;11.88;39.24;100926.13;4423346;32;20062;-69
2021/11/25 07:20:37;;;;;;;5.78;1.40;;;;;;;11.80;39.59;100927.56;4426288;32;20064;-69
2021/11/25 07:23:02;;;;;;;6.65;0.98;;;;;;;11.62;39.76;100929.25;4422103;32;20056;-69
2021/11/25 07:25:29;;;;;;;4.00;0.85;;;;;;;11.69;39.70;100923.44;4420835;32;20513;-69
2021/11/25 07:27:55;;;;;;;8.75;1.10;;;;;;;11.92;39.32;100932.50;4418984;32;20152;-69
2021/11/25 07:30:22;;;;;;;7.85;1.12;;;;;;;11.92;39.40;100923.22;4420399;32;20026;-69
2021/11/25 07:32:49;;;;;;;9.80;1.25;;;;;;;12.01;39.22;100938.28;4420288;32;20103;-69
2021/11/25 07:35:19;;;;;;;5.40;0.82;;;;;;;11.95;39.35;100936.44;4419230;32;20045;-69
2021/11/25 07:37:46;;;;;;;8.23;1.30;;;;;;;11.95;39.50;100942.88;4417038;32;20093;-69
2021/11/25 07:40:12;;;;;;;6.87;1.17;;;;;;;11.92;39.34;100949.41;4413857;32;20038;-69
2021/11/25 07:42:38;;;;;;;8.98;1.48;;;;;;;11.81;39.13;100942.44;4417885;32;20084;-69
2021/11/25 07:45:06;;;;;;;6.62;0.82;;;;;;;12.10;38.72;100937.66;4415712;32;20463;-69
2021/11/25 07:47:33;;;;;;;14.05;3.25;;;;;;;11.87;39.36;100930.19;4410754;32;20069;-69
2021/11/25 07:50:04;;;;;;;6.25;1.15;;;;;;;12.19;38.73;100922.91;4411539;32;20429;-69
2021/11/25 07:52:29;;;;;;;5.87;1.40;;;;;;;12.29;38.36;100933.91;4413190;32;20408;-69
2021/11/25 07:54:55;;;;;;;14.00;1.55;;;;;;;12.30;38.23;100935.47;4404550;32;20504;-69
2021/11/25 07:57:21;;;;;;;4.10;0.77;;;;;;;12.27;38.36;100921.47;4415484;32;20101;-69
2021/11/25 07:59:49;;;;;;;9.65;1.20;;;;;;;12.12;38.70;100934.38;4408446;32;20054;-69
2021/11/25 08:02:17;;;;;;;7.53;1.08;;;;;;;12.20;38.45;100933.75;4413309;32;20328;-69
2021/11/25 08:04:43;;;;;;;17.25;1.83;;;;;;;12.32;38.14;100938.66;4412148;32;20411;-69
2021/11/25 08:07:09;;;;;;;12.15;1.50;;;;;;;12.55;38.13;100937.59;4403325;32;20093;-68
2021/11/25 08:09:34;;;;;;;12.18;1.90;;;;;;;12.25;38.30;100929.59;4404264;32;20077;-69
2021/11/25 08:12:00;;;;;;;18.85;2.20;;;;;;;12.35;37.92;100929.28;4406508;32;20065;-69
2021/11/25 08:14:26;;;;;;;5.90;1.00;;;;;;;12.23;38.19;100927.22;4415468;32;20060;-69
2021/11/25 08:16:57;;;;;;;9.82;1.30;;;;;;;12.46;37.68;100923.34;4402083;32;20425;-69
2021/11/25 08:19:23;;;;;;;5.32;1.10;;;;;;;12.55;37.75;100944.03;4406109;32;20099;-69
2021/11/25 08:21:49;;;;;;;8.05;1.12;;;;;;;12.57;37.70;100946.41;4413217;32;20081;-69
2021/11/25 08:24:15;;;;;;;7.85;1.33;;;;;;;12.53;37.61;100946.53;4409762;32;20070;-69
2021/11/25 08:26:40;;;;;;;7.60;1.00;;;;;;;12.61;37.60;100950.69;4410442;32;20042;-69
2021/11/25 08:29:06;;;;;;;11.45;1.75;;;;;;;12.71;37.21;100943.16;4409743;32;20042;-69
2021/11/25 08:31:32;;;;;;;6.18;1.27;;;;;;;12.78;37.30;100940.94;4415165;32;20077;-69
2021/11/25 08:33:57;;;;;;;13.10;1.80;;;;;;;12.74;37.37;100945.91;4414545;32;20086;-69
2021/11/25 08:36:23;;;;;;;8.23;1.62;;;;;;;12.74;36.96;100943.06;4409717;32;20122;-69
2021/11/25 08:38:49;;;;;;;9.32;2.30;;;;;;;12.86;37.15;100941.50;4407901;32;20356;-69
2021/11/25 08:41:15;;;;;;;9.32;1.62;;;;;;;12.65;37.41;100948.59;4414242;32;20025;-69
2021/11/25 08:43:40;;;;;;;9.48;1.30;;;;;;;12.85;37.26;100951.22;4412290;32;20146;-69
2021/11/25 08:46:06;;;;;;;6.85;1.20;;;;;;;12.69;37.05;100954.91;4414485;32;20347;-69
2021/11/25 08:48:32;;;;;;;14.27;1.23;;;;;;;12.82;36.86;100954.97;4408616;32;20137;-69
2021/11/25 08:50:58;;;;;;;8.95;1.50;;;;;;;12.64;37.46;100952.63;4410071;32;20029;-69
2021/11/25 08:53:24;;;;;;;9.48;1.35;;;;;;;13.10;36.78;100951.31;4411913;32;20042;-68
2021/11/25 08:55:51;;;;;;;10.15;1.20;;;;;;;13.16;36.48;100941.78;4412342;32;20070;-69
2021/11/25 08:58:17;;;;;;;25.30;2.05;;;;;;;12.71;37.05;100949.63;4412504;32;20845;-68
2021/11/25 09:00:43;;;;;;;10.48;1.30;;;;;;;12.86;36.72;100958.47;4410393;32;20493;-69
2021/11/25 09:03:09;;;;;;;7.95;1.25;;;;;;;13.07;36.65;100957.84;4415844;32;20077;-68
2021/11/25 09:05:34;;;;;;;11.05;1.10;;;;;;;13.24;36.37;100956.50;4414903;32;20034;-69
2021/11/25 09:08:01;;;;;;;9.70;1.27;;;;;;;13.31;36.14;100957.06;4412676;32;20095;-69
2021/11/25 09:10:27;;;;;;;18.45;1.60;;;;;;;13.52;36.20;100952.75;4411979;32;20075;-69
2021/11/25 09:12:53;;;;;;;12.45;2.08;;;;;;;14.05;35.27;100957.41;4411816;32;20081;-69
2021/11/25 09:15:22;;;;;;;11.07;1.50;;;;;;;13.99;35.41;100957.19;4409080;32;20081;-69
2021/11/25 09:17:48;;;;;;;17.12;1.62;;;;;;;14.30;34.92;100942.41;4411196;32;20038;-69
2021/11/25 09:20:13;;;;;;;14.38;1.50;;;;;;;14.39;34.69;100954.59;4410561;32;20141;-69
2021/11/25 09:22:40;;;;;;;11.45;1.55;;;;;;;14.51;34.09;100956.59;4410663;32;20130;-69
2021/11/25 09:25:07;;;;;;;13.90;1.33;;;;;;;14.84;33.66;100959.81;4411835;32;20035;-69
2021/11/25 09:27:33;;;;;;;12.45;1.90;;;;;;;14.92;33.28;100963.97;4408994;32;20128;-69
2021/11/25 09:29:59;;;;;;;9.05;1.37;;;;;;;15.66;32.54;100959.78;4410813;32;20342;-69
2021/11/25 09:32:26;;;;;;;13.60;1.83;;;;;;;16.06;31.72;100981.63;4413696;32;20163;-69
2021/11/25 09:34:53;;;;;;;10.23;1.80;;;;;;;16.09;31.39;100969.31;4411508;32;20100;-69
2021/11/25 09:37:18;;;;;;;6.78;1.40;;;;;;;15.98;31.57;100963.31;4409421;32;20096;-69
2021/11/25 09:39:45;;;;;;;18.95;2.28;;;;;;;15.84;31.58;100976.06;4406098;32;20395;-70
2021/11/25 09:42:10;;;;;;;10.27;2.03;;;;;;;16.24;31.21;100988.12;4411324;32;20160;-69
2021/11/25 09:44:36;;;;;;;6.32;1.10;;;;;;;16.38;30.73;100981.03;4409766;32;20099;-69
2021/11/25 09:47:05;;;;;;;5.85;1.33;;;;;;;16.91;30.27;100980.22;4408567;32;20099;-69
2021/11/25 09:49:31;;;;;;;8.45;1.48;;;;;;;16.95;30.28;100980.88;4409960;32;20454;-69
2021/11/25 09:51:58;;;;;;;5.75;1.15;;;;;;;16.67;30.22;100996.37;4413066;32;20066;-69
2021/11/25 09:54:23;;;;;;;6.90;1.45;;;;;;;16.86;30.30;100988.63;4412400;32;20090;-69
2021/11/25 09:56:51;;;;;;;6.12;1.35;;;;;;;16.70;30.31;100992.59;4408768;32;20525;-69
2021/11/25 09:59:17;;;;;;;8.38;1.37;;;;;;;16.89;30.11;100987.66;4412097;32;20033;-70
2021/11/25 10:01:43;;;;;;;10.80;2.15;;;;;;;16.96;29.76;100993.00;4415114;32;20424;-69
2021/11/25 10:04:09;;;;;;;11.98;1.92;;;;;;;17.12;29.57;101004.84;4412007;32;20081;-69
2021/11/25 10:06:52;;;;;;;7.90;1.50;;;;;;;17.52;29.42;101005.38;4412362;32;20073;-70
2021/11/25 10:09:34;;;;;;;17.12;1.67;;;;;;;17.56;29.33;101014.56;4407961;32;20741;-70
2021/11/25 10:12:01;;;;;;;10.63;1.65;;;;;;;17.30;29.40;101004.78;4412834;32;20093;-71
2021/11/25 10:14:37;;;;;;;14.27;1.60;;;;;;;17.37;29.42;101010.13;4409135;32;20096;-70
2021/11/25 10:17:04;;;;;;;7.72;1.23;;;;;;;18.12;28.72;101010.13;4410076;32;20073;-71
2021/11/25 10:19:29;;;;;;;9.02;1.98;;;;;;;17.43;29.23;101013.94;4412938;32;20565;-71
2021/11/25 10:21:58;;;;;;;8.13;1.23;;;;;;;18.02;28.54;101014.31;4413594;32;20074;-71
2021/11/25 10:24:48;;;;;;;13.98;1.58;;;;;;;18.49;28.04;101015.12;4408599;32;20111;-71
2021/11/25 10:33:01;;;;;;;15.88;1.83;;;;;;;19.52;26.74;101031.16;3969561;32;15023812;-71
2021/11/25 10:35:35;;;;;;;14.00;1.62;;;;;;;19.52;26.74;101031.16;4414696;32;20041;-71
2021/11/25 10:40:41;;;;;;;11.60;1.90;;;;;;;18.57;27.90;101049.75;3974681;32;15056571;-70
2021/11/25 10:43:29;;;;;;;12.75;1.40;;;;;;;18.57;27.90;101049.75;4426391;32;20103;-70
2021/11/25 10:45:54;;;;;;;5.47;1.50;;;;;;;18.60;27.76;101045.94;4424066;32;20033;-71
2021/11/25 10:48:35;;;;;;;15.30;2.00;;;;;;;18.01;28.62;101027.75;4423421;32;20045;-70
2021/11/25 10:51:26;;;;;;;8.00;1.40;;;;;;;18.78;27.85;101037.25;4427614;32;20070;-69
2021/11/25 10:54:12;;;;;;;20.98;2.05;;;;;;;17.57;29.01;101021.81;4424683;32;20091;-69
2021/11/25 10:59:32;;;;;;;12.70;1.90;;;;;;;17.96;28.92;101008.50;3976497;32;15023160;-69
2021/11/25 11:01:58;;;;;;;10.18;1.83;;;;;;;17.96;28.92;101008.50;4419968;32;20083;-69
2021/11/25 11:04:28;;;;;;;12.93;1.58;;;;;;;18.06;28.44;101003.53;4428246;32;20045;-69
2021/11/25 11:06:55;;;;;;;10.40;2.33;;;;;;;18.00;28.51;100996.91;4430784;32;20621;-69
2021/11/25 11:09:39;;;;;;;14.20;2.55;;;;;;;19.08;27.28;101013.19;4413700;32;20059;-69
2021/11/25 11:15:27;;;;;;;6.60;1.50;;;;;;;19.56;26.32;101015.38;3983221;32;15022871;-69
2021/11/25 11:20:50;;;;;;;7.40;1.40;;;;;;;20.01;25.96;101008.31;3959444;32;15024192;-68
2021/11/25 11:23:18;;;;;;;8.70;1.58;;;;;;;20.01;25.96;101008.31;4411783;32;20457;-68
2021/11/25 11:25:44;;;;;;;15.48;2.35;;;;;;;20.03;25.58;101008.56;4413971;32;20246;-69
2021/11/25 11:28:11;;;;;;;16.15;2.55;;;;;;;20.36;25.25;101006.22;4411101;32;20089;-68
2021/11/25 11:30:38;;;;;;;11.02;1.87;;;;;;;20.79;24.87;100998.66;4412150;32;20025;-68
2021/11/25 11:33:07;;;;;;;9.88;1.42;;;;;;;20.94;24.55;100996.50;4406926;32;20376;-67
2021/11/25 11:35:33;;;;;;;14.02;1.55;;;;;;;20.89;24.24;101003.72;4408224;32;20482;-70
2021/11/25 11:38:01;;;;;;;9.82;2.00;;;;;;;20.66;24.44;101001.91;4405070;32;20078;-69
2021/11/25 11:40:29;;;;;;;13.20;1.55;;;;;;;20.33;25.06;101004.34;4411690;32;21122;-69
2021/11/25 11:42:59;;;;;;;10.57;1.75;;;;;;;20.93;24.15;101012.87;4406793;32;20479;-70